sensor_id;sensor_type;location;lat;lon;timestamp;pressure;altitude;pressure_sealevel;temperature;humidity
61682;BME280;47577;43.610;25.010;2022-12-10T08:24:08;99603.69;;;8.43;90.64
61682;BME280;47577;43.610;25.010;2022-12-10T08:26:33;99555.97;;;8.19;90.69
61682;BME280;47577;43.610;25.010;2022-12-10T08:29:00;99557.53;;;8.25;89.74
61682;BME280;47577;43.610;25.010;2022-12-10T08:31:26;99547.81;;;8.26;90.39
61682;BME280;47577;43.610;25.010;2022-12-10T08:33:53;99553.63;;;8.35;90.85
61682;BME280;47577;43.610;25.010;2022-12-10T08:36:19;99573.31;;;8.52;89.16
61682;BME280;47577;43.610;25.010;2022-12-10T08:38:45;99543.75;;;8.39;90.46
61682;BME280;47577;43.610;25.010;2022-12-10T08:41:17;99553.81;;;8.54;89.34
61682;BME280;47577;43.610;25.010;2022-12-10T08:43:44;99544.06;;;8.55;88.85
61682;BME280;47577;43.610;25.010;2022-12-10T08:46:12;99561.97;;;8.72;88.94
61682;BME280;47577;43.610;25.010;2022-12-10T08:48:42;99537.19;;;8.51;90.47
61682;BME280;47577;43.610;25.010;2022-12-10T08:51:10;99531.31;;;8.65;89.55
61682;BME280;47577;43.610;25.010;2022-12-10T08:53:36;99549.56;;;8.72;89.47
61682;BME280;47577;43.610;25.010;2022-12-10T08:56:02;99527.50;;;8.72;90.39
61682;BME280;47577;43.610;25.010;2022-12-10T08:58:28;99556.72;;;8.92;89.92
61682;BME280;47577;43.610;25.010;2022-12-10T09:00:54;99539.41;;;8.84;90.78
61682;BME280;47577;43.610;25.010;2022-12-10T09:03:20;99518.19;;;8.84;90.74
61682;BME280;47577;43.610;25.010;2022-12-10T09:05:46;99507.41;;;8.88;89.07
61682;BME280;47577;43.610;25.010;2022-12-10T09:08:13;99520.03;;;9.04;89.21
61682;BME280;47577;43.610;25.010;2022-12-10T09:10:39;99513.78;;;9.05;90.22
61682;BME280;47577;43.610;25.010;2022-12-10T09:13:06;99542.28;;;9.42;89.54
61682;BME280;47577;43.610;25.010;2022-12-10T09:15:31;99529.97;;;9.41;91.05
61682;BME280;47577;43.610;25.010;2022-12-10T09:17:57;99518.16;;;9.48;90.69
61682;BME280;47577;43.610;25.010;2022-12-10T09:20:23;99491.75;;;9.45;87.57
61682;BME280;47577;43.610;25.010;2022-12-10T09:22:49;99521.78;;;9.66;87.36
61682;BME280;47577;43.610;25.010;2022-12-10T09:25:15;99507.25;;;9.75;88.96
61682;BME280;47577;43.610;25.010;2022-12-10T09:27:43;99493.75;;;9.80;88.20
61682;BME280;47577;43.610;25.010;2022-12-10T09:30:10;99475.78;;;9.86;87.58
61682;BME280;47577;43.610;25.010;2022-12-10T09:32:36;99475.41;;;9.94;86.94
61682;BME280;47577;43.610;25.010;2022-12-10T09:35:01;99478.94;;;10.14;87.82
61682;BME280;47577;43.610;25.010;2022-12-10T09:37:27;99476.72;;;10.23;87.72
61682;BME280;47577;43.610;25.010;2022-12-10T09:39:53;99469.88;;;10.38;87.31
61682;BME280;47577;43.610;25.010;2022-12-10T09:42:35;99478.97;;;10.52;86.92
61682;BME280;47577;43.610;25.010;2022-12-10T09:45:23;99498.72;;;10.83;86.26
61682;BME280;47577;43.610;25.010;2022-12-10T09:51:05;99488.09;;;10.83;85.08
61682;BME280;47577;43.610;25.010;2022-12-10T09:53:35;99482.63;;;10.86;84.88
61682;BME280;47577;43.610;25.010;2022-12-10T09:56:02;99465.72;;;10.87;85.35
61682;BME280;47577;43.610;25.010;2022-12-10T09:58:29;99426.38;;;10.76;85.00
61682;BME280;47577;43.610;25.010;2022-12-10T10:01:04;99417.31;;;10.80;85.07
61682;BME280;47577;43.610;25.010;2022-12-10T10:03:36;99438.81;;;10.93;83.66
61682;BME280;47577;43.610;25.010;2022-12-10T10:06:03;99424.19;;;10.84;84.73
61682;BME280;47577;43.610;25.010;2022-12-10T10:08:36;99439.53;;;10.96;84.49
61682;BME280;47577;43.610;25.010;2022-12-10T10:11:04;99423.97;;;10.89;84.43
61682;BME280;47577;43.610;25.010;2022-12-10T10:13:47;99461.13;;;11.08;83.67
61682;BME280;47577;43.610;25.010;2022-12-10T10:16:26;99384.16;;;10.70;84.34
61682;BME280;47577;43.610;25.010;2022-12-10T10:18:58;99450.41;;;11.09;83.81
61682;BME280;47577;43.610;25.010;2022-12-10T10:21:38;99438.69;;;11.13;84.16
61682;BME280;47577;43.610;25.010;2022-12-10T10:24:07;99436.56;;;11.20;84.32
61682;BME280;47577;43.610;25.010;2022-12-10T10:26:35;99399.41;;;11.01;84.80
61682;BME280;47577;43.610;25.010;2022-12-10T10:29:04;99438.97;;;11.42;83.74
61682;BME280;47577;43.610;25.010;2022-12-10T10:31:33;99398.38;;;11.21;84.40
61682;BME280;47577;43.610;25.010;2022-12-10T10:34:06;99397.72;;;11.33;84.06
61682;BME280;47577;43.610;25.010;2022-12-10T10:36:38;99365.03;;;11.14;83.23
61682;BME280;47577;43.610;25.010;2022-12-10T10:39:24;99399.00;;;11.26;82.34
61682;BME280;47577;43.610;25.010;2022-12-10T10:41:53;99406.38;;;11.21;82.06
61682;BME280;47577;43.610;25.010;2022-12-10T10:44:22;99436.53;;;11.55;83.80
61682;BME280;47577;43.610;25.010;2022-12-10T10:46:51;99419.44;;;11.59;83.48
61682;BME280;47577;43.610;25.010;2022-12-10T10:49:27;99412.22;;;11.61;83.88
61682;BME280;47577;43.610;25.010;2022-12-10T10:51:58;99383.03;;;11.60;84.19
61682;BME280;47577;43.610;25.010;2022-12-10T10:54:33;99403.38;;;11.94;83.10
61682;BME280;47577;43.610;25.010;2022-12-10T10:57:06;99348.75;;;11.85;84.09
61682;BME280;47577;43.610;25.010;2022-12-10T10:59:36;99401.16;;;12.34;83.43
61682;BME280;47577;43.610;25.010;2022-12-10T11:02:20;99397.59;;;12.50;83.21
61682;BME280;47577;43.610;25.010;2022-12-10T11:04:53;99359.78;;;12.27;82.43
61682;BME280;47577;43.610;25.010;2022-12-10T11:07:39;99406.50;;;12.65;82.00
61682;BME280;47577;43.610;25.010;2022-12-10T11:10:24;99400.91;;;12.69;81.77
61682;BME280;47577;43.610;25.010;2022-12-10T11:13:06;99394.78;;;12.83;82.37
61682;BME280;47577;43.610;25.010;2022-12-10T11:15:42;99339.16;;;12.61;81.05
61682;BME280;47577;43.610;25.010;2022-12-10T11:18:31;99370.38;;;12.89;81.04
61682;BME280;47577;43.610;25.010;2022-12-10T11:21:18;99318.06;;;12.72;81.37
61682;BME280;47577;43.610;25.010;2022-12-10T11:23:51;99331.41;;;12.87;82.02
61682;BME280;47577;43.610;25.010;2022-12-10T11:40:26;99359.16;;;13.43;78.84
61682;BME280;47577;43.610;25.010;2022-12-10T11:48:39;99361.72;;;13.45;80.27
61682;BME280;47577;43.610;25.010;2022-12-10T11:54:11;99337.75;;;13.29;79.46
61682;BME280;47577;43.610;25.010;2022-12-10T11:56:44;99367.06;;;13.45;78.97
61682;BME280;47577;43.610;25.010;2022-12-10T11:59:33;99360.84;;;13.44;78.44
61682;BME280;47577;43.610;25.010;2022-12-10T12:02:28;99346.84;;;13.41;79.49
61682;BME280;47577;43.610;25.010;2022-12-10T12:08:19;99341.97;;;13.47;79.10
61682;BME280;47577;43.610;25.010;2022-12-10T12:15:49;99331.88;;;13.38;78.44
61682;BME280;47577;43.610;25.010;2022-12-10T12:18:21;99322.72;;;13.42;79.03
61682;BME280;47577;43.610;25.010;2022-12-10T12:20:54;99329.59;;;13.46;78.53
61682;BME280;47577;43.610;25.010;2022-12-10T12:23:29;99326.38;;;13.41;77.88
61682;BME280;47577;43.610;25.010;2022-12-10T12:26:21;99323.00;;;13.38;79.13
61682;BME280;47577;43.610;25.010;2022-12-10T12:31:37;99318.13;;;13.30;78.19
61682;BME280;47577;43.610;25.010;2022-12-10T12:36:48;99328.91;;;13.28;78.22
61682;BME280;47577;43.610;25.010;2022-12-10T12:39:27;99330.88;;;13.25;79.33
61682;BME280;47577;43.610;25.010;2022-12-10T12:47:40;99342.81;;;13.19;78.13
61682;BME280;47577;43.610;25.010;2022-12-10T12:53:11;99333.75;;;13.07;78.54
61682;BME280;47577;43.610;25.010;2022-12-10T13:01:05;99314.56;;;13.01;78.78
61682;BME280;47577;43.610;25.010;2022-12-10T13:03:40;99322.38;;;13.04;80.01
61682;BME280;47577;43.610;25.010;2022-12-10T13:06:24;99306.56;;;13.01;79.53
61682;BME280;47577;43.610;25.010;2022-12-10T13:11:43;99302.84;;;13.03;79.18
61682;BME280;47577;43.610;25.010;2022-12-10T13:22:12;99280.38;;;12.93;79.16
61682;BME280;47577;43.610;25.010;2022-12-10T13:25:15;99282.34;;;12.89;78.75
61682;BME280;47577;43.610;25.010;2022-12-10T13:27:53;99285.88;;;12.90;79.35
61682;BME280;47577;43.610;25.010;2022-12-10T13:30:29;99279.56;;;12.91;80.10
61682;BME280;47577;43.610;25.010;2022-12-10T13:33:17;99283.13;;;12.91;79.20
61682;BME280;47577;43.610;25.010;2022-12-10T13:35:51;99282.56;;;12.86;79.06
61682;BME280;47577;43.610;25.010;2022-12-10T13:38:26;99280.91;;;12.84;78.50
61682;BME280;47577;43.610;25.010;2022-12-10T13:41:04;99274.81;;;12.82;78.75
61682;BME280;47577;43.610;25.010;2022-12-10T13:43:58;99289.88;;;12.83;77.97
61682;BME280;47577;43.610;25.010;2022-12-10T13:46:55;99277.50;;;12.82;78.58
61682;BME280;47577;43.610;25.010;2022-12-10T13:49:27;99276.53;;;12.83;78.61
61682;BME280;47577;43.610;25.010;2022-12-10T13:52:18;99262.88;;;12.73;78.20
61682;BME280;47577;43.610;25.010;2022-12-10T14:00:19;99251.84;;;12.65;77.95
61682;BME280;47577;43.610;25.010;2022-12-10T14:05:42;99253.75;;;12.62;78.87
61682;BME280;47577;43.610;25.010;2022-12-10T14:08:19;99258.28;;;12.46;79.13
61682;BME280;47577;43.610;25.010;2022-12-10T14:10:48;99243.19;;;12.31;79.01
61682;BME280;47577;43.610;25.010;2022-12-10T14:13:16;99253.09;;;12.29;80.22
61682;BME280;47577;43.610;25.010;2022-12-10T14:16:00;99244.13;;;12.15;79.66
61682;BME280;47577;43.610;25.010;2022-12-10T14:18:28;99262.00;;;12.13;80.15
61682;BME280;47577;43.610;25.010;2022-12-10T14:20:56;99250.16;;;12.03;79.91
61682;BME280;47577;43.610;25.010;2022-12-10T14:23:31;99246.13;;;11.96;80.47
61682;BME280;47577;43.610;25.010;2022-12-10T14:28:31;99237.13;;;11.66;82.25
61682;BME280;47577;43.610;25.010;2022-12-10T14:30:59;99248.09;;;11.60;82.24
61682;BME280;47577;43.610;25.010;2022-12-10T14:33:25;99231.88;;;11.33;82.17
61682;BME280;47577;43.610;25.010;2022-12-10T14:35:52;99238.81;;;11.20;82.28
61682;BME280;47577;43.610;25.010;2022-12-10T14:38:26;99228.75;;;11.09;82.69
61682;BME280;47577;43.610;25.010;2022-12-10T14:40:53;99229.34;;;11.14;83.42
61682;BME280;47577;43.610;25.010;2022-12-10T14:43:33;99224.94;;;10.81;82.66
61682;BME280;47577;43.610;25.010;2022-12-10T14:46:03;99210.41;;;10.71;83.82
61682;BME280;47577;43.610;25.010;2022-12-10T14:48:29;99201.16;;;10.78;83.49
61682;BME280;47577;43.610;25.010;2022-12-10T14:51:02;99203.06;;;10.76;83.24
61682;BME280;47577;43.610;25.010;2022-12-10T14:53:31;99206.31;;;10.81;83.23
61682;BME280;47577;43.610;25.010;2022-12-10T14:56:03;99210.06;;;10.77;81.87
61682;BME280;47577;43.610;25.010;2022-12-10T15:01:02;99223.25;;;10.63;83.54
61682;BME280;47577;43.610;25.010;2022-12-10T15:03:35;99204.09;;;10.56;82.92
61682;BME280;47577;43.610;25.010;2022-12-10T15:06:08;99199.97;;;10.50;83.26
61682;BME280;47577;43.610;25.010;2022-12-10T15:08:34;99192.03;;;10.33;83.93
61682;BME280;47577;43.610;25.010;2022-12-10T15:11:02;99186.38;;;10.21;84.56
61682;BME280;47577;43.610;25.010;2022-12-10T15:13:41;99188.47;;;10.15;85.18
61682;BME280;47577;43.610;25.010;2022-12-10T15:16:18;99179.13;;;10.07;84.73
61682;BME280;47577;43.610;25.010;2022-12-10T15:18:45;99180.13;;;10.05;84.97
61682;BME280;47577;43.610;25.010;2022-12-10T15:21:19;99176.69;;;10.03;84.80
61682;BME280;47577;43.610;25.010;2022-12-10T15:35:15;99110.44;;;9.30;86.92
61682;BME280;47577;43.610;25.010;2022-12-10T15:37:41;99141.59;;;9.25;88.36
61682;BME280;47577;43.610;25.010;2022-12-10T20:04:17;98783.75;;;8.71;95.60
61682;BME280;47577;43.610;25.010;2022-12-10T20:06:47;98777.47;;;8.73;94.75
61682;BME280;47577;43.610;25.010;2022-12-10T20:09:22;98768.72;;;8.71;95.22
61682;BME280;47577;43.610;25.010;2022-12-10T20:11:49;98806.69;;;9.05;96.58
61682;BME280;47577;43.610;25.010;2022-12-10T20:14:15;98772.75;;;8.96;95.47
61682;BME280;47577;43.610;25.010;2022-12-10T20:16:41;98763.88;;;9.13;95.22
61682;BME280;47577;43.610;25.010;2022-12-10T20:19:12;98781.78;;;9.25;94.40
61682;BME280;47577;43.610;25.010;2022-12-10T20:21:39;98780.16;;;9.23;94.68
61682;BME280;47577;43.610;25.010;2022-12-10T20:24:05;98781.78;;;9.25;94.67
61682;BME280;47577;43.610;25.010;2022-12-10T20:26:36;98770.75;;;9.17;93.96
61682;BME280;47577;43.610;25.010;2022-12-10T20:29:13;98816.22;;;9.59;94.67
61682;BME280;47577;43.610;25.010;2022-12-10T20:31:39;98802.09;;;9.58;95.58
61682;BME280;47577;43.610;25.010;2022-12-10T20:34:06;98749.19;;;9.39;95.68
61682;BME280;47577;43.610;25.010;2022-12-10T20:36:36;98779.59;;;9.65;93.87
61682;BME280;47577;43.610;25.010;2022-12-10T20:39:03;98737.41;;;9.45;93.77
61682;BME280;47577;43.610;25.010;2022-12-10T20:46:40;98743.13;;;9.69;95.12
61682;BME280;47577;43.610;25.010;2022-12-10T20:49:08;98758.09;;;9.70;94.63
61682;BME280;47577;43.610;25.010;2022-12-10T20:51:33;98722.75;;;9.54;94.44
61682;BME280;47577;43.610;25.010;2022-12-10T20:53:59;98733.28;;;9.71;95.92
61682;BME280;47577;43.610;25.010;2022-12-10T20:56:25;98745.50;;;9.89;94.80
61682;BME280;47577;43.610;25.010;2022-12-10T20:58:51;98758.41;;;9.96;94.01
61682;BME280;47577;43.610;25.010;2022-12-10T21:01:18;98742.75;;;9.91;93.17
61682;BME280;47577;43.610;25.010;2022-12-10T21:03:44;98743.94;;;10.01;94.11
61682;BME280;47577;43.610;25.010;2022-12-10T21:06:15;98708.22;;;9.91;93.08
61682;BME280;47577;43.610;25.010;2022-12-10T21:08:43;98734.25;;;10.00;93.46
61682;BME280;47577;43.610;25.010;2022-12-10T21:11:09;98698.00;;;9.85;93.11
61682;BME280;47577;43.610;25.010;2022-12-10T21:13:34;98704.22;;;10.00;92.82
61682;BME280;47577;43.610;25.010;2022-12-10T21:16:02;98694.25;;;10.03;93.20
61682;BME280;47577;43.610;25.010;2022-12-10T21:18:29;98700.91;;;10.11;94.01
61682;BME280;47577;43.610;25.010;2022-12-10T21:20:55;98719.84;;;10.20;92.80
61682;BME280;47577;43.610;25.010;2022-12-10T21:23:24;98693.91;;;10.10;92.25
61682;BME280;47577;43.610;25.010;2022-12-10T21:25:50;98704.84;;;10.19;91.44
61682;BME280;47577;43.610;25.010;2022-12-10T21:28:17;98707.56;;;10.34;91.61
61682;BME280;47577;43.610;25.010;2022-12-10T21:30:43;98699.59;;;10.34;90.97
61682;BME280;47577;43.610;25.010;2022-12-10T21:33:13;98706.69;;;10.33;91.15
61682;BME280;47577;43.610;25.010;2022-12-10T21:35:38;98705.66;;;10.36;92.58
61682;BME280;47577;43.610;25.010;2022-12-10T21:38:04;98657.56;;;10.10;93.86
61682;BME280;47577;43.610;25.010;2022-12-10T21:40:31;98658.94;;;10.17;92.80
61682;BME280;47577;43.610;25.010;2022-12-10T21:42:57;98663.00;;;10.23;92.76
61682;BME280;47577;43.610;25.010;2022-12-10T21:45:45;98650.25;;;10.14;91.99
61682;BME280;47577;43.610;25.010;2022-12-10T21:48:13;98642.38;;;10.12;92.68
61682;BME280;47577;43.610;25.010;2022-12-10T21:50:40;98653.13;;;10.25;91.79
61682;BME280;47577;43.610;25.010;2022-12-10T21:53:06;98648.94;;;10.37;92.35
61682;BME280;47577;43.610;25.010;2022-12-10T21:55:34;98638.22;;;10.53;92.98
61682;BME280;47577;43.610;25.010;2022-12-10T21:58:01;98633.00;;;10.51;92.98
61682;BME280;47577;43.610;25.010;2022-12-10T22:00:26;98610.69;;;10.39;92.90
61682;BME280;47577;43.610;25.010;2022-12-10T22:02:52;98591.16;;;10.40;93.16
61682;BME280;47577;43.610;25.010;2022-12-10T22:05:18;98598.25;;;10.69;93.92
61682;BME280;47577;43.610;25.010;2022-12-10T22:07:44;98584.94;;;10.69;92.97
61682;BME280;47577;43.610;25.010;2022-12-10T22:10:11;98615.16;;;10.82;91.88
61682;BME280;47577;43.610;25.010;2022-12-10T22:12:38;98600.44;;;10.62;92.13
61682;BME280;47577;43.610;25.010;2022-12-10T22:15:04;98591.72;;;10.60;93.52
61682;BME280;47577;43.610;25.010;2022-12-10T22:17:30;98592.91;;;10.83;94.57
61682;BME280;47577;43.610;25.010;2022-12-10T22:19:56;98553.06;;;10.69;93.37
61682;BME280;47577;43.610;25.010;2022-12-10T22:22:21;98549.34;;;10.86;93.88
61682;BME280;47577;43.610;25.010;2022-12-10T22:24:48;98575.00;;;11.00;91.98
61682;BME280;47577;43.610;25.010;2022-12-10T22:27:13;98534.56;;;10.94;92.20
61682;BME280;47577;43.610;25.010;2022-12-10T22:29:39;98509.19;;;10.76;90.91
61682;BME280;47577;43.610;25.010;2022-12-10T22:32:05;98555.16;;;11.05;92.42
61682;BME280;47577;43.610;25.010;2022-12-10T22:34:31;98549.69;;;11.21;92.90
61682;BME280;47577;43.610;25.010;2022-12-10T22:36:57;98520.00;;;11.14;92.17
61682;BME280;47577;43.610;25.010;2022-12-10T22:39:24;98554.00;;;11.37;92.04
61682;BME280;47577;43.610;25.010;2022-12-10T22:41:50;98517.72;;;11.36;91.88
61682;BME280;47577;43.610;25.010;2022-12-10T22:44:16;98512.75;;;11.57;90.08
61682;BME280;47577;43.610;25.010;2022-12-10T22:46:44;98503.19;;;11.67;90.35
61682;BME280;47577;43.610;25.010;2022-12-10T22:49:10;98470.41;;;11.79;90.55
61682;BME280;47577;43.610;25.010;2022-12-10T22:51:36;98495.97;;;12.07;90.01
61682;BME280;47577;43.610;25.010;2022-12-10T22:54:02;98452.50;;;11.81;88.56
61682;BME280;47577;43.610;25.010;2022-12-10T22:56:28;98456.66;;;11.98;89.39
61682;BME280;47577;43.610;25.010;2022-12-10T22:58:55;98447.72;;;11.99;89.72
61682;BME280;47577;43.610;25.010;2022-12-10T23:01:23;98458.06;;;12.04;89.06
61682;BME280;47577;43.610;25.010;2022-12-10T23:03:49;98470.09;;;12.47;88.01
61682;BME280;47577;43.610;25.010;2022-12-10T23:06:16;98460.09;;;12.37;87.36
61682;BME280;47577;43.610;25.010;2022-12-10T23:08:42;98427.31;;;12.24;88.29
61682;BME280;47577;43.610;25.010;2022-12-10T23:11:09;98451.00;;;12.53;87.04
61682;BME280;47577;43.610;25.010;2022-12-10T23:13:36;98476.97;;;12.75;85.48
61682;BME280;47577;43.610;25.010;2022-12-10T23:16:06;98453.31;;;12.70;84.99
61682;BME280;47577;43.610;25.010;2022-12-10T23:18:32;98447.25;;;12.79;84.75
61682;BME280;47577;43.610;25.010;2022-12-10T23:20:58;98461.97;;;12.85;85.65
61682;BME280;47577;43.610;25.010;2022-12-10T23:23:25;98476.16;;;12.86;86.14
61682;BME280;47577;43.610;25.010;2022-12-10T23:25:51;98473.59;;;12.84;85.52
61682;BME280;47577;43.610;25.010;2022-12-10T23:28:18;98452.44;;;12.70;86.46
61682;BME280;47577;43.610;25.010;2022-12-10T23:33:45;98463.81;;;12.85;88.75
61682;BME280;47577;43.610;25.010;2022-12-10T23:36:11;98423.41;;;12.78;87.67
61682;BME280;47577;43.610;25.010;2022-12-10T23:38:38;98394.69;;;12.82;86.51
61682;BME280;47577;43.610;25.010;2022-12-10T23:41:08;98397.75;;;12.88;86.56
61682;BME280;47577;43.610;25.010;2022-12-10T23:43:35;98371.91;;;12.89;87.99
61682;BME280;47577;43.610;25.010;2022-12-10T23:46:01;98391.97;;;12.94;87.02
61682;BME280;47577;43.610;25.010;2022-12-10T23:48:28;98384.09;;;13.04;88.73
61682;BME280;47577;43.610;25.010;2022-12-10T23:50:57;98389.81;;;13.11;87.75
61682;BME280;47577;43.610;25.010;2022-12-10T23:53:24;98383.50;;;13.12;88.60
61682;BME280;47577;43.610;25.010;2022-12-10T23:55:50;98378.88;;;13.03;88.41
61682;BME280;47577;43.610;25.010;2022-12-10T23:58:16;98373.22;;;13.19;88.04
